Huvudsida
METAR-TAF:

METAR-TAF

Flygplatser :

Pointe Noire Airport

Pointe-Noire, Kongo

latitud: 04-49S, longitud: 011-54E, höjd: 17 m

Aktuellt väderrapport

Denna rapport gjordes för 1 timme och 13 minuter sedan, klockan 01:00 UTC
Vind 2 kt från ost/nordost
Temperatur 25°C
Fuktighet 100%
Tryck 1011 hPa
Sikt: 9000 m
Få moln på en höjd av 1000 ft

METAR: FCPP 190100Z 06002KT 9000 FEW010 25/25 Q1011 NOSIG

Tid: 03:13 (02:13 UTC)

Väderprognos

Denna rapport gjordes för 3 timmar och 13 minuter sedan, klockan 23:00 UTC
Prognos gäller från 19 kl. 00 UTC till 19 kl. 24 UTC
Vind 4 kt från syd/sydväst
Sikt: 8000 m
Få moln på en höjd av 1500 ft
Blir
från 19 kl. 12 UTC till 19 kl. 14 UTC
Få moln på en höjd av 2000 ft
Få moln på en höjd av 3000 ft, Cumulonimbus.
Blir
från 19 kl. 21 UTC till 19 kl. 23 UTC
Spridda moln på en höjd av 1800 ft

TAF: FCPP 182300Z 1900/1924 20004KT 8000 FEW015 BECMG 1912/1914 FEW020 FEW030CB BECMG 1921/1923 SCT018

Aktuella väderrapporter och prognoser från 4000 flygplatser (METAR- och TAF-rapporter).

De tillgängliga stationerna syns som gula och röda prickar på kartan.

För musen över prickarna för att se namnen på stationerna.

Klicka sedan för att få väderrapporter och prognoser.

För att ändra kartan: Klicka på de gröna knapparna med ett svart kors på för att zooma in; den gröna knappen med ett streck på för att zooma ut; eller på de gröna pilarna för angränsande kartor.


METAR-TAF: